Time;durP1;ratioP1;P1;durP2;ratioP2;P2;SDS_P1;SDS_P2;PMS_P1;PMS_P2;Temp;Humidity;BMP_temperature;BMP_pressure;BME280_temperature;BME280_humidity;BME280_pressure;Samples;Min_cycle;Max_cycle;Signal;HPM_P1;HPM_P2
2023/09/30 00:02:06;;;;;;;14.70;6.47;;;;;;;-145.18;100.00;46660.41;5014022;28;20026;-60
2023/09/30 00:04:31;;;;;;;12.93;6.83;;;;;;;-145.18;100.00;46660.41;5014223;28;20605;-60
2023/09/30 00:06:57;;;;;;;15.53;6.73;;;;;;;-145.18;100.00;46635.00;5013635;28;20037;-60
2023/09/30 00:09:22;;;;;;;10.67;6.60;;;;;;;-145.18;100.00;46660.41;5014098;28;20089;-61
2023/09/30 00:11:48;;;;;;;16.67;7.20;;;;;;;-145.18;100.00;46633.06;5010179;28;20025;-60
2023/09/30 00:14:14;;;;;;;15.57;8.57;;;;;;;-145.18;100.00;46631.09;5007055;28;20038;-60
2023/09/30 00:16:39;;;;;;;12.60;7.17;;;;;;;-145.18;100.00;46660.41;5002429;28;20045;-60
2023/09/30 00:19:05;;;;;;;12.03;6.00;;;;;;;-145.18;100.00;46635.00;4997957;28;20085;-60
2023/09/30 00:21:30;;;;;;;14.60;7.33;;;;;;;-145.18;100.00;46660.41;5011525;28;20029;-60
2023/09/30 00:23:56;;;;;;;11.27;7.03;;;;;;;-145.18;100.00;46660.41;5012797;28;20034;-60
2023/09/30 00:26:22;;;;;;;18.53;8.97;;;;;;;-145.18;100.00;46660.41;5012960;28;20044;-60
2023/09/30 00:28:47;;;;;;;17.93;7.13;;;;;;;-145.18;100.00;46660.41;5009490;28;20034;-60
2023/09/30 00:31:12;;;;;;;16.83;8.00;;;;;;;-145.18;100.00;46633.06;5013783;28;20120;-60
2023/09/30 00:33:38;;;;;;;14.77;8.23;;;;;;;-145.18;100.00;46633.06;5011362;28;20065;-61
2023/09/30 00:36:10;;;;;;;18.07;7.90;;;;;;;-145.18;100.00;46660.41;5007641;28;20025;-60
2023/09/30 00:38:37;;;;;;;13.83;7.70;;;;;;;-145.18;100.00;46660.41;5012385;28;20585;-60
2023/09/30 00:41:03;;;;;;;16.20;6.53;;;;;;;-145.18;100.00;46631.09;5013727;28;20428;-60
2023/09/30 00:43:28;;;;;;;18.93;7.57;;;;;;;-145.18;100.00;46660.41;5012481;28;20037;-60
2023/09/30 00:46:27;;;;;;;16.63;7.97;;;;;;;-145.18;100.00;46660.41;5013169;28;20401;-60
2023/09/30 00:48:54;;;;;;;16.97;7.70;;;;;;;-145.18;100.00;46660.41;4991490;28;20422;-61
2023/09/30 00:51:20;;;;;;;12.70;7.37;;;;;;;-145.18;100.00;46660.41;4999896;28;20488;-60
2023/09/30 00:53:45;;;;;;;15.57;7.50;;;;;;;-145.18;100.00;46660.41;5012259;28;20033;-60
2023/09/30 00:56:11;;;;;;;22.20;9.50;;;;;;;-145.18;100.00;46660.41;5012310;28;20044;-60
2023/09/30 00:58:38;;;;;;;14.37;7.80;;;;;;;-145.18;100.00;46660.41;5013172;28;20029;-60
2023/09/30 01:01:04;;;;;;;18.10;8.53;;;;;;;-145.18;100.00;46660.41;5012597;28;20026;-58
2023/09/30 01:03:30;;;;;;;20.13;8.83;;;;;;;-145.18;100.00;46660.41;5010028;28;20029;-61
2023/09/30 01:05:56;;;;;;;18.43;8.70;;;;;;;-145.18;100.00;46660.41;5012150;28;20033;-60
2023/09/30 01:08:22;;;;;;;15.73;7.83;;;;;;;-145.18;100.00;46660.41;5008294;28;20483;-61
2023/09/30 01:10:48;;;;;;;11.80;7.50;;;;;;;-145.18;100.00;46660.41;5007363;28;20034;-61
2023/09/30 01:13:14;;;;;;;17.13;8.07;;;;;;;-145.18;100.00;46660.41;5013085;28;20076;-61
2023/09/30 01:15:39;;;;;;;15.10;8.47;;;;;;;-145.18;100.00;46660.41;5012350;28;20045;-61
2023/09/30 01:18:04;;;;;;;13.87;8.20;;;;;;;-145.18;100.00;46660.41;5008851;28;20147;-60
2023/09/30 01:20:31;;;;;;;17.27;8.67;;;;;;;-145.18;100.00;46660.41;5012440;28;20030;-60
2023/09/30 01:22:57;;;;;;;17.80;8.90;;;;;;;-145.18;100.00;46660.41;5012730;28;20037;-60
2023/09/30 01:25:23;;;;;;;19.80;9.47;;;;;;;-145.18;100.00;46660.41;5012579;28;20394;-60
2023/09/30 01:27:51;;;;;;;15.23;8.33;;;;;;;-145.18;100.00;46660.41;5011305;28;20387;-60
2023/09/30 01:30:17;;;;;;;17.67;9.43;;;;;;;-145.18;100.00;46660.41;5011583;28;20040;-60
2023/09/30 01:32:44;;;;;;;20.93;10.30;;;;;;;-145.18;100.00;46660.41;5012612;28;20117;-60
2023/09/30 01:35:09;;;;;;;15.57;9.47;;;;;;;-145.18;100.00;46631.09;5012601;28;20117;-67
2023/09/30 01:37:35;;;;;;;18.50;10.67;;;;;;;-145.18;100.00;46660.41;5012495;28;20112;-68
2023/09/30 01:40:01;;;;;;;22.43;10.07;;;;;;;-145.18;100.00;46631.09;5012255;28;20053;-67
2023/09/30 01:42:27;;;;;;;15.90;9.50;;;;;;;-145.18;100.00;46631.09;5007605;28;20041;-68
2023/09/30 01:44:52;;;;;;;15.50;9.20;;;;;;;-145.18;100.00;46660.41;5006577;28;20091;-67
2023/09/30 01:47:18;;;;;;;18.53;9.37;;;;;;;-145.18;100.00;46633.06;5011763;28;20156;-68
2023/09/30 01:49:43;;;;;;;13.87;8.90;;;;;;;-145.18;100.00;46660.41;5012540;28;20026;-68
2023/09/30 01:52:09;;;;;;;17.77;8.83;;;;;;;-145.18;100.00;46660.41;5011165;28;20454;-68
2023/09/30 01:54:34;;;;;;;17.07;8.80;;;;;;;-145.18;100.00;46631.09;5010952;28;20034;-68
2023/09/30 01:56:59;;;;;;;15.80;9.60;;;;;;;-145.18;100.00;46660.41;5010488;28;20025;-67
2023/09/30 01:59:25;;;;;;;19.33;9.30;;;;;;;-145.18;100.00;46660.41;5011858;28;20053;-68
2023/09/30 02:01:50;;;;;;;17.87;10.57;;;;;;;-145.18;100.00;46660.41;5012155;28;20165;-68
2023/09/30 02:04:16;;;;;;;22.87;10.50;;;;;;;-145.18;100.00;46660.41;5011849;28;20057;-67
2023/09/30 02:06:41;;;;;;;20.60;11.50;;;;;;;-145.18;100.00;46660.41;5011386;28;20044;-67
2023/09/30 02:09:08;;;;;;;19.70;9.93;;;;;;;-145.18;100.00;46660.41;5011926;28;20030;-68
2023/09/30 02:11:35;;;;;;;19.37;10.13;;;;;;;-145.18;100.00;46660.41;5010984;28;20490;-67
2023/09/30 02:14:02;;;;;;;22.63;11.60;;;;;;;-145.18;100.00;46660.41;5010613;28;20498;-67
2023/09/30 02:16:27;;;;;;;19.53;9.60;;;;;;;-145.18;100.00;46660.41;5011907;28;20049;-67
2023/09/30 02:18:53;;;;;;;16.23;9.63;;;;;;;-145.18;100.00;46660.41;5009805;28;20029;-67
2023/09/30 02:21:19;;;;;;;14.07;9.07;;;;;;;-145.18;100.00;46660.41;5009303;28;20037;-68
2023/09/30 02:23:47;;;;;;;17.50;9.03;;;;;;;-145.18;100.00;46660.41;5011784;28;20029;-68
2023/09/30 02:26:14;;;;;;;20.33;9.43;;;;;;;-145.18;100.00;46631.09;5011721;28;20029;-67
2023/09/30 02:28:39;;;;;;;18.97;10.03;;;;;;;-145.18;100.00;46660.41;5011556;28;20433;-68
2023/09/30 02:31:07;;;;;;;17.90;9.73;;;;;;;-145.18;100.00;46633.06;5004675;28;20108;-68
2023/09/30 02:33:33;;;;;;;16.60;8.50;;;;;;;-145.18;100.00;46660.41;5011602;28;20392;-68
2023/09/30 02:35:59;;;;;;;16.80;8.50;;;;;;;-145.18;100.00;46631.09;5011619;28;20040;-67
2023/09/30 02:38:25;;;;;;;14.20;9.13;;;;;;;-145.18;100.00;46660.41;5011210;28;20050;-67
2023/09/30 02:40:51;;;;;;;16.93;9.23;;;;;;;-145.18;100.00;46631.09;5009934;28;20493;-68
2023/09/30 02:43:16;;;;;;;16.07;9.43;;;;;;;-145.18;100.00;46631.09;5011204;28;20045;-67
2023/09/30 02:45:42;;;;;;;16.20;9.17;;;;;;;-145.18;100.00;46631.09;5010208;28;20025;-67
2023/09/30 02:48:08;;;;;;;15.90;8.10;;;;;;;-145.18;100.00;46635.00;5011297;28;20042;-68
2023/09/30 02:50:33;;;;;;;16.50;8.40;;;;;;;-145.18;100.00;46631.09;5011499;28;20026;-68
2023/09/30 02:52:59;;;;;;;16.50;8.50;;;;;;;-145.18;100.00;46660.41;5011122;28;20033;-68
2023/09/30 02:55:24;;;;;;;13.33;8.60;;;;;;;-145.18;100.00;46660.41;5011688;28;20109;-68
2023/09/30 02:57:49;;;;;;;20.80;9.27;;;;;;;-145.18;100.00;46660.41;5011180;28;20029;-68
2023/09/30 03:00:25;;;;;;;20.70;9.77;;;;;;;-145.18;100.00;46660.41;5011330;28;20065;-68
2023/09/30 03:02:55;;;;;;;15.83;9.03;;;;;;;-145.18;100.00;46660.41;5009838;28;20026;-68
2023/09/30 03:05:22;;;;;;;14.70;8.90;;;;;;;-145.18;100.00;46660.41;5005557;28;20033;-68
2023/09/30 03:07:48;;;;;;;17.37;9.50;;;;;;;-145.18;100.00;46660.41;5013251;28;20033;-68
2023/09/30 03:10:19;;;;;;;17.33;9.57;;;;;;;-145.18;100.00;46660.41;5014899;28;20414;-68
2023/09/30 03:12:46;;;;;;;20.97;9.10;;;;;;;-145.18;100.00;46660.41;5014873;28;20521;-68
2023/09/30 03:15:11;;;;;;;15.83;9.40;;;;;;;-145.18;100.00;46629.13;5015029;28;20104;-68
2023/09/30 03:17:37;;;;;;;19.10;9.53;;;;;;;-145.18;100.00;46660.41;5014831;28;20041;-68
2023/09/30 03:20:09;;;;;;;18.63;10.40;;;;;;;-145.18;100.00;46660.41;5014674;28;20034;-68
2023/09/30 03:22:35;;;;;;;16.90;9.53;;;;;;;-145.18;100.00;46629.13;5003372;28;20034;-68
2023/09/30 03:25:01;;;;;;;16.60;9.20;;;;;;;-145.18;100.00;46629.13;5014865;28;20041;-68
2023/09/30 03:27:26;;;;;;;18.03;10.23;;;;;;;-145.18;100.00;46660.41;5013042;28;20038;-68
2023/09/30 03:29:52;;;;;;;20.77;9.93;;;;;;;-145.18;100.00;46629.13;5009591;28;20079;-68
2023/09/30 03:32:17;;;;;;;23.73;10.17;;;;;;;-145.18;100.00;46660.41;5007101;28;20058;-67
2023/09/30 03:34:46;;;;;;;21.20;11.07;;;;;;;-145.18;100.00;46631.09;5014638;28;20437;-68
2023/09/30 03:37:11;;;;;;;20.00;10.13;;;;;;;-145.18;100.00;46631.09;5009508;28;20152;-68
2023/09/30 03:39:37;;;;;;;33.40;11.13;;;;;;;-145.18;100.00;46631.09;5012122;28;20133;-68
2023/09/30 03:42:03;;;;;;;17.20;10.67;;;;;;;-145.18;100.00;46633.06;5014462;28;20062;-68
2023/09/30 03:44:28;;;;;;;19.70;11.13;;;;;;;-145.18;100.00;46631.09;5014753;28;20025;-68
2023/09/30 03:46:54;;;;;;;18.87;10.10;;;;;;;-145.18;100.00;46660.41;5013862;28;20518;-68
2023/09/30 03:49:20;;;;;;;16.47;9.93;;;;;;;-145.18;100.00;46660.41;5014575;28;20505;-68
2023/09/30 03:51:46;;;;;;;24.20;12.33;;;;;;;-145.18;100.00;46631.09;5005676;28;20030;-68
2023/09/30 03:54:12;;;;;;;19.20;11.00;;;;;;;-145.18;100.00;46633.06;5014177;28;20026;-68
2023/09/30 03:56:41;;;;;;;19.23;10.77;;;;;;;-145.18;100.00;46631.09;5012962;28;20559;-61
2023/09/30 03:59:08;;;;;;;22.87;10.50;;;;;;;-145.18;100.00;46631.09;5014110;28;20037;-61
2023/09/30 04:01:34;;;;;;;21.17;10.90;;;;;;;-145.18;100.00;46631.09;5010987;28;20557;-61
2023/09/30 04:03:59;;;;;;;17.00;10.73;;;;;;;-145.18;100.00;46638.91;5013291;28;20065;-61
2023/09/30 04:06:25;;;;;;;23.07;10.90;;;;;;;-145.18;100.00;46629.13;5012357;28;20033;-61
2023/09/30 04:08:51;;;;;;;18.90;10.40;;;;;;;-145.18;100.00;46631.09;5013658;28;20025;-61
2023/09/30 04:11:20;;;;;;;18.40;11.50;;;;;;;-145.18;100.00;46629.13;5013446;28;20099;-61
2023/09/30 04:13:45;;;;;;;22.67;11.43;;;;;;;-145.18;100.00;46631.09;5013558;28;20034;-61
2023/09/30 04:16:11;;;;;;;18.67;11.57;;;;;;;-145.18;100.00;46633.06;5013568;28;20045;-61
2023/09/30 04:18:38;;;;;;;19.13;11.77;;;;;;;-145.18;100.00;46631.09;5012139;28;20530;-61
2023/09/30 04:21:04;;;;;;;22.10;11.47;;;;;;;-145.18;100.00;46629.13;5010404;28;20033;-61
2023/09/30 04:23:30;;;;;;;19.73;11.03;;;;;;;-145.18;100.00;46631.09;5008958;28;20041;-61
2023/09/30 04:25:55;;;;;;;21.00;11.87;;;;;;;-145.18;100.00;46633.06;5011629;28;20084;-60
2023/09/30 04:28:21;;;;;;;17.83;10.73;;;;;;;-145.18;100.00;46633.06;5012672;28;20108;-60
2023/09/30 04:30:48;;;;;;;23.50;11.23;;;;;;;-145.18;100.00;46629.13;5011501;28;20045;-61
2023/09/30 04:33:14;;;;;;;23.03;11.83;;;;;;;-145.18;100.00;46635.00;5012304;28;20038;-60
2023/09/30 04:35:40;;;;;;;19.17;10.60;;;;;;;-145.18;100.00;46636.94;5007036;28;20029;-60
2023/09/30 04:38:06;;;;;;;20.17;11.10;;;;;;;-145.18;100.00;46635.00;5013397;28;20029;-61
2023/09/30 04:40:32;;;;;;;20.37;11.33;;;;;;;-145.18;100.00;46633.06;5013256;28;20379;-60
2023/09/30 04:42:58;;;;;;;19.67;10.77;;;;;;;-145.18;100.00;46660.41;5012414;28;20026;-61
2023/09/30 04:45:27;;;;;;;24.03;11.33;;;;;;;-145.18;100.00;46631.09;5010377;28;20049;-61
2023/09/30 04:47:58;;;;;;;17.20;9.77;;;;;;;-145.18;100.00;46631.09;5007344;28;20069;-60
2023/09/30 04:50:23;;;;;;;20.63;11.07;;;;;;;-145.18;100.00;46635.00;5009832;28;20033;-61
2023/09/30 04:52:53;;;;;;;25.77;12.63;;;;;;;-145.18;100.00;46633.06;5013391;28;20113;-61
2023/09/30 04:55:19;;;;;;;22.27;11.77;;;;;;;-145.18;100.00;46631.09;5010753;28;20038;-61
2023/09/30 04:57:47;;;;;;;22.10;11.97;;;;;;;-145.18;100.00;46633.06;4994907;28;20040;-60
2023/09/30 05:00:14;;;;;;;19.67;11.87;;;;;;;-145.18;100.00;46633.06;5011872;28;20052;-60
2023/09/30 05:02:39;;;;;;;19.97;11.90;;;;;;;-145.18;100.00;46660.41;5013308;28;20038;-61
2023/09/30 05:05:06;;;;;;;24.97;11.73;;;;;;;-145.18;100.00;46660.41;5013046;28;20348;-68
2023/09/30 05:07:32;;;;;;;21.83;11.57;;;;;;;-145.18;100.00;46635.00;5013211;28;20125;-68
2023/09/30 05:09:57;;;;;;;15.93;10.10;;;;;;;-145.18;100.00;46629.13;5001518;28;20040;-68
2023/09/30 05:12:23;;;;;;;17.17;10.13;;;;;;;-145.18;100.00;46660.41;5008331;28;20041;-68
2023/09/30 05:14:48;;;;;;;14.90;9.20;;;;;;;-145.18;100.00;46629.13;5012126;28;20026;-68
2023/09/30 05:17:14;;;;;;;14.93;9.70;;;;;;;-145.18;100.00;46660.41;5012375;28;20144;-68
2023/09/30 05:19:39;;;;;;;15.20;10.43;;;;;;;-145.18;100.00;46660.41;5011123;28;20539;-68
2023/09/30 05:22:05;;;;;;;20.50;11.50;;;;;;;-145.18;100.00;46631.09;5012109;28;20099;-68
2023/09/30 05:24:30;;;;;;;23.40;10.87;;;;;;;-145.18;100.00;46631.09;5012430;28;20022;-68
2023/09/30 05:26:56;;;;;;;18.60;11.07;;;;;;;-145.18;100.00;46633.06;5011993;28;20026;-68
2023/09/30 05:29:22;;;;;;;23.67;12.50;;;;;;;-145.18;100.00;46629.13;5012125;28;20076;-68
2023/09/30 05:31:48;;;;;;;22.77;12.43;;;;;;;-145.18;100.00;46631.09;5012234;28;20032;-68
2023/09/30 05:34:13;;;;;;;17.37;11.20;;;;;;;-145.18;100.00;46629.13;5012380;28;20030;-68
2023/09/30 05:36:39;;;;;;;19.87;11.87;;;;;;;-145.18;100.00;46660.41;5007923;28;20042;-68
2023/09/30 05:39:05;;;;;;;20.33;11.27;;;;;;;-145.18;100.00;46660.41;5010436;28;20144;-68
2023/09/30 05:41:33;;;;;;;21.70;11.80;;;;;;;-145.18;100.00;46660.41;5012114;28;20149;-68
2023/09/30 05:43:59;;;;;;;21.40;12.43;;;;;;;-145.18;100.00;46629.13;5008761;28;20563;-68
2023/09/30 05:46:25;;;;;;;21.13;12.10;;;;;;;-145.18;100.00;46629.13;5008150;28;20038;-68
2023/09/30 05:48:50;;;;;;;22.00;11.20;;;;;;;-145.18;100.00;46660.41;5000888;28;20026;-68
2023/09/30 05:51:16;;;;;;;24.43;12.17;;;;;;;-145.18;100.00;46629.13;4992342;28;20080;-68
2023/09/30 05:53:41;;;;;;;22.23;11.73;;;;;;;-145.18;100.00;46660.41;5005261;28;20038;-68
2023/09/30 05:56:08;;;;;;;21.47;12.00;;;;;;;-145.18;100.00;46627.19;5011567;28;20038;-68
2023/09/30 05:58:33;;;;;;;27.53;11.67;;;;;;;-145.18;100.00;46660.41;5011891;28;20055;-68
2023/09/30 06:01:00;;;;;;;21.70;11.87;;;;;;;-145.18;100.00;46631.09;5001528;28;20535;-68
2023/09/30 06:03:29;;;;;;;22.97;12.00;;;;;;;-145.18;100.00;46627.19;5008034;28;20481;-68
2023/09/30 06:05:55;;;;;;;22.17;11.77;;;;;;;-145.18;100.00;46633.06;5011896;28;20502;-68
2023/09/30 06:08:21;;;;;;;21.40;12.33;;;;;;;-145.18;100.00;46629.13;5010907;28;20032;-68
2023/09/30 06:10:46;;;;;;;23.93;13.00;;;;;;;-145.18;100.00;46633.06;5011621;28;20232;-68
2023/09/30 06:13:13;;;;;;;23.33;11.60;;;;;;;-145.18;100.00;46625.22;5010330;28;20034;-68
2023/09/30 06:15:42;;;;;;;22.27;11.53;;;;;;;-145.18;100.00;46629.13;5010913;28;20054;-68
2023/09/30 06:18:09;;;;;;;23.40;12.60;;;;;;;-145.18;100.00;46627.19;5011124;28;20144;-68
2023/09/30 06:20:35;;;;;;;25.57;12.67;;;;;;;-145.18;100.00;46627.19;5010767;28;20026;-68
2023/09/30 06:23:01;;;;;;;21.47;12.63;;;;;;;-145.18;100.00;46627.19;5005618;28;20032;-68
2023/09/30 06:25:27;;;;;;;22.27;12.57;;;;;;;-145.18;100.00;46625.22;5010137;28;20053;-68
2023/09/30 06:27:57;;;;;;;26.60;14.07;;;;;;;-145.18;100.00;46625.22;5008541;28;20049;-68
2023/09/30 06:30:29;;;;;;;25.63;12.77;;;;;;;-145.18;100.00;46629.13;5011059;28;20061;-68
2023/09/30 06:32:59;;;;;;;26.30;13.10;;;;;;;-145.18;100.00;46631.09;5002135;28;20045;-68
2023/09/30 06:35:26;;;;;;;26.03;14.30;;;;;;;-145.18;100.00;46623.28;5006569;28;20145;-68
2023/09/30 06:37:51;;;;;;;22.60;13.17;;;;;;;-145.18;100.00;46623.28;5008615;28;20146;-67
2023/09/30 06:40:17;;;;;;;20.40;12.80;;;;;;;-145.18;100.00;46627.19;4992913;28;20120;-67
2023/09/30 06:42:42;;;;;;;23.93;13.57;;;;;;;-145.18;100.00;46627.19;5008540;28;20034;-68
2023/09/30 06:45:09;;;;;;;26.27;13.30;;;;;;;-145.18;100.00;46621.31;5009712;28;20394;-68
2023/09/30 06:47:36;;;;;;;30.53;13.93;;;;;;;-145.18;100.00;46623.28;5014351;28;20465;-68
2023/09/30 06:50:08;;;;;;;26.33;13.93;;;;;;;-145.18;100.00;46621.31;5010651;28;20068;-68
2023/09/30 06:52:35;;;;;;;28.27;15.07;;;;;;;-145.18;100.00;46619.38;5004609;28;20041;-67
2023/09/30 06:55:01;;;;;;;27.40;15.23;;;;;;;-145.18;100.00;46623.28;5007635;28;20049;-68
2023/09/30 06:57:27;;;;;;;34.93;17.63;;;;;;;-145.18;100.00;46627.19;5014250;28;20026;-67
2023/09/30 06:59:52;;;;;;;31.33;16.60;;;;;;;-145.18;100.00;46613.50;5007745;28;20041;-68
2023/09/30 07:02:17;;;;;;;33.67;16.97;;;;;;;-145.18;100.00;46617.41;5015232;28;20520;-68
2023/09/30 07:04:43;;;;;;;34.10;18.53;;;;;;;-145.18;100.00;46617.41;5008308;28;20038;-67
2023/09/30 07:07:09;;;;;;;38.23;19.53;;;;;;;-145.18;100.00;46613.50;5011957;28;20041;-68
2023/09/30 07:09:36;;;;;;;31.90;18.67;;;;;;;-145.18;100.00;46613.50;5009757;28;20038;-68
2023/09/30 07:12:01;;;;;;;39.93;18.93;;;;;;;-145.18;100.00;46615.47;5010912;28;20022;-68
2023/09/30 07:14:27;;;;;;;32.67;18.00;;;;;;;-145.18;100.00;46611.56;5011200;28;20048;-67
2023/09/30 07:16:52;;;;;;;37.93;19.07;;;;;;;-145.18;100.00;46607.66;5012742;28;20040;-67
2023/09/30 07:19:18;;;;;;;34.23;19.17;;;;;;;-145.18;100.00;46603.75;5011941;28;20042;-68
2023/09/30 07:21:43;;;;;;;38.57;19.00;;;;;;;-145.18;100.00;46601.78;5011604;28;20112;-68
2023/09/30 07:24:09;;;;;;;43.03;20.27;;;;;;;-145.18;100.00;46595.94;5013742;28;20045;-68
2023/09/30 07:26:35;;;;;;;41.10;19.67;;;;;;;-145.18;100.00;46599.84;5014890;28;20030;-60
2023/09/30 07:29:01;;;;;;;40.97;20.90;;;;;;;-145.18;100.00;46595.94;5004691;28;20052;-61
2023/09/30 07:31:26;;;;;;;40.27;20.87;;;;;;;-145.18;100.00;46597.88;5006000;28;20030;-60
2023/09/30 07:33:52;;;;;;;38.00;20.50;;;;;;;-145.18;100.00;46599.84;5002282;28;20525;-60
2023/09/30 07:36:17;;;;;;;39.43;20.47;;;;;;;-145.18;100.00;46599.84;5004459;28;20037;-60
2023/09/30 07:38:43;;;;;;;36.77;21.57;;;;;;;-145.18;100.00;46599.84;5011351;28;20065;-60
2023/09/30 07:41:10;;;;;;;38.43;21.73;;;;;;;-145.18;100.00;46595.94;5003340;28;20117;-60
2023/09/30 07:43:35;;;;;;;38.13;20.63;;;;;;;-145.18;100.00;46597.88;5003491;28;20393;-60
2023/09/30 07:46:06;;;;;;;39.73;21.13;;;;;;;-145.18;100.00;46603.75;5010072;28;20038;-61
2023/09/30 07:48:32;;;;;;;37.13;19.93;;;;;;;-145.18;100.00;46601.78;5005044;28;20034;-60
2023/09/30 07:50:58;;;;;;;44.97;21.93;;;;;;;-145.18;100.00;46605.69;5011421;28;20040;-60
2023/09/30 07:53:23;;;;;;;39.87;21.07;;;;;;;-145.18;100.00;46603.75;5008374;28;20034;-60
2023/09/30 07:55:48;;;;;;;46.07;21.47;;;;;;;-145.18;100.00;46601.78;5006971;28;20088;-60
2023/09/30 07:58:14;;;;;;;42.63;21.57;;;;;;;-145.18;100.00;46601.78;5008019;28;20116;-60
2023/09/30 08:00:39;;;;;;;43.53;20.93;;;;;;;-145.18;100.00;46607.66;5010983;28;20393;-61
2023/09/30 08:03:06;;;;;;;41.60;21.23;;;;;;;-145.18;100.00;46609.59;5008509;28;20041;-61
2023/09/30 08:05:31;;;;;;;37.70;22.00;;;;;;;-145.18;100.00;46611.56;5010383;28;20034;-61
2023/09/30 08:07:57;;;;;;;40.83;21.40;;;;;;;-145.18;100.00;46607.66;5012156;28;20026;-61
2023/09/30 08:10:22;;;;;;;43.80;22.63;;;;;;;-145.18;100.00;46609.59;5004767;28;20586;-61
2023/09/30 08:12:49;;;;;;;36.77;20.10;;;;;;;-145.18;100.00;46611.56;5003608;28;20041;-60
2023/09/30 08:15:15;;;;;;;42.37;21.70;;;;;;;-145.18;100.00;46609.59;5008700;28;20040;-60
2023/09/30 08:17:40;;;;;;;40.33;20.17;;;;;;;-145.18;100.00;46613.50;5001787;28;20033;-61
2023/09/30 08:20:08;;;;;;;46.50;21.93;;;;;;;-145.18;100.00;46613.50;5008671;28;20084;-61
2023/09/30 08:22:34;;;;;;;43.33;22.53;;;;;;;-145.18;100.00;46611.56;5001533;28;20038;-60
2023/09/30 08:25:00;;;;;;;45.47;21.10;;;;;;;-145.18;100.00;46615.47;5002316;28;20469;-60
2023/09/30 08:27:25;;;;;;;49.27;21.20;;;;;;;-145.18;100.00;46623.28;5008645;28;20034;-61
2023/09/30 08:29:50;;;;;;;49.77;21.83;;;;;;;-145.18;100.00;46619.38;5006978;28;20100;-60
2023/09/30 08:32:16;;;;;;;41.40;20.33;;;;;;;-145.18;100.00;46623.28;5011827;28;20030;-61
2023/09/30 08:34:41;;;;;;;39.23;20.33;;;;;;;-145.18;100.00;46625.22;5007471;28;20037;-61
2023/09/30 08:37:07;;;;;;;36.93;20.10;;;;;;;-145.18;100.00;46627.19;5013595;28;20121;-61
2023/09/30 08:39:32;;;;;;;40.93;20.83;;;;;;;-145.18;100.00;46627.19;5011505;28;20057;-61
2023/09/30 08:42:01;;;;;;;39.23;19.63;;;;;;;-145.18;100.00;46633.06;5012327;28;20030;-61
2023/09/30 08:44:29;;;;;;;38.03;19.07;;;;;;;-145.18;100.00;46633.06;5012506;28;20036;-61
2023/09/30 08:46:56;;;;;;;42.37;19.67;;;;;;;-145.18;100.00;46635.00;5012596;28;20116;-61
2023/09/30 08:49:22;;;;;;;35.07;18.70;;;;;;;-145.18;100.00;46636.94;5013351;28;20040;-61
2023/09/30 08:51:49;;;;;;;34.70;17.80;;;;;;;-145.18;100.00;46638.91;5013266;28;20030;-61
2023/09/30 08:54:15;;;;;;;37.23;19.20;;;;;;;-145.18;100.00;46640.88;5012999;28;20121;-61
2023/09/30 08:56:43;;;;;;;40.23;19.83;;;;;;;-145.18;100.00;46638.91;5007684;28;20112;-61
2023/09/30 08:59:11;;;;;;;40.40;19.73;;;;;;;-145.18;100.00;46648.69;5006306;28;20038;-61
2023/09/30 09:01:37;;;;;;;40.00;19.40;;;;;;;-145.18;100.00;46650.63;5010032;28;20037;-61
2023/09/30 09:04:03;;;;;;;43.10;19.40;;;;;;;-145.18;100.00;46648.69;5008012;28;20042;-61
2023/09/30 09:06:29;;;;;;;42.93;18.90;;;;;;;-145.18;100.00;46648.69;5008688;28;20052;-61
2023/09/30 09:09:13;;;;;;;40.33;19.67;;;;;;;-145.18;100.00;46648.69;5000763;28;20119;-61
2023/09/30 09:11:38;;;;;;;39.83;17.80;;;;;;;-145.18;100.00;46652.59;5003731;28;20022;-61
2023/09/30 09:14:04;;;;;;;34.83;17.43;;;;;;;-145.18;100.00;46656.50;4994149;28;20037;-61
2023/09/30 09:16:30;;;;;;;39.50;17.00;;;;;;;-145.18;100.00;46662.34;5005850;28;20041;-61
2023/09/30 09:18:56;;;;;;;33.30;17.43;;;;;;;-145.18;100.00;46660.41;4988482;28;20067;-61
2023/09/30 09:21:28;;;;;;;38.77;17.20;;;;;;;-145.18;100.00;46666.25;5011091;28;20049;-61
2023/09/30 09:23:53;;;;;;;39.80;18.50;;;;;;;-145.18;100.00;46664.31;5012361;28;20056;-61
2023/09/30 09:26:29;;;;;;;42.93;17.90;;;;;;;-145.18;100.00;46662.34;5003982;28;20465;-61
2023/09/30 09:28:59;;;;;;;35.50;18.07;;;;;;;-145.18;100.00;46660.41;5007863;28;20033;-61
2023/09/30 09:31:27;;;;;;;36.70;18.03;;;;;;;-145.18;100.00;46670.16;5012663;28;20025;-61
2023/09/30 09:33:53;;;;;;;40.70;18.63;;;;;;;-145.18;100.00;46666.25;5010792;28;20112;-61
2023/09/30 09:36:21;;;;;;;36.23;18.27;;;;;;;-145.18;100.00;46672.13;4990961;28;20116;-61
2023/09/30 09:38:53;;;;;;;37.03;19.63;;;;;;;-145.18;100.00;46670.16;5012348;28;20049;-61
2023/09/30 09:41:22;;;;;;;35.03;16.60;;;;;;;-145.18;100.00;46676.03;5012525;28;20042;-61
2023/09/30 09:43:53;;;;;;;34.20;16.70;;;;;;;-145.18;100.00;46672.13;5009730;28;20638;-61
2023/09/30 09:46:18;;;;;;;34.57;17.47;;;;;;;-145.18;100.00;46672.13;5002710;28;20033;-68
2023/09/30 09:48:47;;;;;;;40.77;17.83;;;;;;;-145.18;100.00;46674.06;5011956;28;20037;-69
2023/09/30 09:51:14;;;;;;;39.30;18.20;;;;;;;-145.18;100.00;46676.03;5012382;28;20445;-68
2023/09/30 09:53:41;;;;;;;37.03;17.83;;;;;;;-145.18;100.00;46679.94;5011151;28;20034;-69
2023/09/30 09:56:11;;;;;;;34.60;17.87;;;;;;;-145.18;100.00;46677.97;5011326;28;20030;-68
2023/09/30 09:58:41;;;;;;;34.10;15.10;;;;;;;-145.18;100.00;46677.97;5011774;28;20037;-68
2023/09/30 10:01:06;;;;;;;25.60;12.93;;;;;;;-145.18;100.00;46681.88;5009372;28;20489;-68
2023/09/30 10:03:32;;;;;;;28.73;11.90;;;;;;;-145.18;100.00;46689.69;5012060;28;20072;-68
2023/09/30 10:05:59;;;;;;;24.57;12.47;;;;;;;-145.18;100.00;46687.75;5001560;28;20037;-68
2023/09/30 10:08:33;;;;;;;26.47;13.17;;;;;;;-145.18;100.00;46691.66;5012131;28;20030;-68
2023/09/30 10:10:59;;;;;;;25.60;11.77;;;;;;;-145.18;100.00;46693.59;5008445;28;20022;-68
2023/09/30 10:13:52;;;;;;;29.97;11.63;;;;;;;-145.18;100.00;46695.56;5010862;28;20034;-68
2023/09/30 10:16:36;;;;;;;24.80;13.43;;;;;;;-145.18;100.00;46685.78;5011305;28;20049;-68
2023/09/30 10:19:17;;;;;;;24.57;11.77;;;;;;;-145.18;100.00;46691.66;5007757;28;20022;-68
2023/09/30 10:22:27;;;;;;;26.17;11.57;;;;;;;-145.18;100.00;46666.25;5002556;28;20153;-69
2023/09/30 10:24:59;;;;;;;17.90;7.77;;;;;;;-145.18;100.00;46582.25;4979172;28;20042;-68
2023/09/30 10:27:24;;;;;;;19.80;9.97;;;;;;;-145.18;100.00;46560.78;5010292;28;20092;-68
2023/09/30 10:30:15;;;;;;;21.40;10.10;;;;;;;-145.18;100.00;46562.72;5010979;28;20029;-68
2023/09/30 10:33:01;;;;;;;20.33;8.10;;;;;;;-145.18;100.00;46558.81;5011682;28;20044;-68
2023/09/30 10:35:27;;;;;;;23.10;10.27;;;;;;;-145.18;100.00;46566.63;5004031;28;20040;-68
2023/09/30 10:38:21;;;;;;;20.20;9.33;;;;;;;-145.18;100.00;46580.31;5010711;28;20134;-67
2023/09/30 10:40:47;;;;;;;24.13;11.37;;;;;;;-145.18;100.00;46568.59;5009110;28;20034;-68
2023/09/30 10:43:38;;;;;;;25.13;11.77;;;;;;;-145.18;100.00;46560.78;5008705;28;20026;-68
2023/09/30 10:46:24;;;;;;;24.27;12.07;;;;;;;-145.18;100.00;46574.44;5008123;28;20038;-68
2023/09/30 10:48:50;;;;;;;14.40;7.00;;;;;;;-145.18;100.00;46574.44;5011345;28;20775;-68
2023/09/30 10:51:22;;;;;;;16.10;5.83;;;;;;;-145.18;100.00;46570.53;5010972;28;20577;-68
2023/09/30 10:54:00;;;;;;;18.00;6.00;;;;;;;-145.18;100.00;46562.72;5007794;28;20036;-68
2023/09/30 10:56:32;;;;;;;14.20;6.03;;;;;;;-145.18;100.00;46572.50;5004674;28;20038;-61
2023/09/30 10:58:59;;;;;;;13.20;5.60;;;;;;;-145.18;100.00;46574.44;5007957;28;20030;-62